Med Island — 9HA3839 — position and weather

sailwx.info

Track history (hours):
 
Tides and Currents Weather Stations Pressure Air Temp Water Temp Dewpoint Dewpoint Depression Visibility Wind Speed Wind Dir Waves Ship Positions

Med Island

Last reported at 2017-Dec-17 17:30 UTC. Time now 2017-Dec-17 17:55 UTC.
Position N 37°40' E 025°51'.

Length 170 m; draft 9.7 m.

Type: Cargo ship. MMSI: 256155000.

Date/timePositionNaut miles runAvg speedWind from/ knotsBaromVisibWave heightAir tempDewpointWater temp
2017-Dec-17 17:30N 37°40' E 025°51'611.0
2017-Dec-17 17:00N 37°45' E 025°49'510.7
2017-Dec-17 16:29N 37°50' E 025°47'510.7
2017-Dec-17 16:00N 37°55' E 025°45'510.8
2017-Dec-17 15:30N 38°00' E 025°43'216 8.5
2017-Dec-16 14:09N 40°53' E 028°31'210.4
2017-Dec-16 13:59N 40°53' E 028°33'810.5
2017-Dec-16 13:13N 40°55' E 028°43'310.4
2017-Dec-16 12:57N 40°55' E 028°47'5 7.6
2017-Dec-16 12:17N 40°57' E 028°53'1 0.3
2017-Dec-16 09:26N 40°58' E 028°54'0 0.2
2017-Dec-16 09:00N 40°58' E 028°54'2 3.8
2017-Dec-16 08:25N 40°58' E 028°57'3 8.1
2017-Dec-16 07:59N 41°00' E 028°60'113 5.9
2017-Dec-15 12:55N 42°49' E 029°43'511.8
2017-Dec-15 12:30N 42°54' E 029°45'611.9
2017-Dec-15 12:00N 42°59' E 029°48'612.0
2017-Dec-15 11:30N 43°05' E 029°50'2011.8
2017-Dec-15 09:46N 43°25' E 029°58'312.2
2017-Dec-15 09:30N 43°28' E 029°59'612.1
2017-Dec-15 09:00N 43°34' E 030°01'712.1
2017-Dec-15 08:25N 43°41' E 030°04'512.0
2017-Dec-15 08:00N 43°45' E 030°06'4512.0
2017-Dec-15 04:13N 44°29' E 030°24'11111.4
2017-Dec-14 18:25N 46°18' E 030°55'511.3
2017-Dec-14 17:59N 46°23' E 030°55'611.5
2017-Dec-14 17:28N 46°29' E 030°55'4 9.6
2017-Dec-14 17:00N 46°33' E 030°58'24 9.5
2017-Dec-14 14:31N 46°35' E 031°32'0 8.2
2017-Dec-14 14:30N 46°35' E 031°32'4 7.9
2017-Dec-14 14:00N 46°36' E 031°38'4 7.8
2017-Dec-14 13:30N 46°36' E 031°44'5 9.3
2017-Dec-14 13:00N 46°36' E 031°50'4 9.2
2017-Dec-14 12:30N 46°39' E 031°56'5 9.4
2017-Dec-14 12:00N 46°44' E 031°56'4 9.0
2017-Dec-14 11:30N 46°48' E 031°53'5 9.7
2017-Dec-14 11:00N 46°52' E 031°58'4 8.5
2017-Dec-14 10:30N 46°55' E 032°01'2 3.1
2017-Dec-14 10:00N 46°57' E 032°01'1 1.0
2017-Dec-14 09:30N 46°56' E 032°01'0 0.0
2017-Dec-14 08:58N 46°56' E 032°01'0 0.0
2017-Dec-14 08:28N 46°56' E 032°01'0 0.0
2017-Dec-14 07:58N 46°56' E 032°01'0 0.0
2017-Dec-14 07:28N 46°56' E 032°01'0 0.0
2017-Dec-14 06:55N 46°56' E 032°01'0 0.0
2017-Dec-14 06:28N 46°56' E 032°01'0 0.0
2017-Dec-14 05:58N 46°56' E 032°01'0 0.0
2017-Dec-14 05:28N 46°56' E 032°01'0 0.0
2017-Dec-14 04:58N 46°56' E 032°01'0 0.0
2017-Dec-14 04:28N 46°56' E 032°01'0 0.0
2017-Dec-14 03:58N 46°56' E 032°01'0 0.0
2017-Dec-14 03:25N 46°56' E 032°01'0 0.0
2017-Dec-14 02:58N 46°56' E 032°01'0 0.0
2017-Dec-14 02:28N 46°56' E 032°01'0 0.0
2017-Dec-14 01:58N 46°56' E 032°01'0 0.0
2017-Dec-14 01:28N 46°56' E 032°01'0 0.0
2017-Dec-14 00:58N 46°56' E 032°01'0 0.0
2017-Dec-14 00:28N 46°56' E 032°01'0 0.0
2017-Dec-13 23:58N 46°56' E 032°01'0 0.0
2017-Dec-13 23:28N 46°56' E 032°01'0 0.0
2017-Dec-13 22:58N 46°56' E 032°01'0 0.0
2017-Dec-13 22:28N 46°56' E 032°01'0 0.0
2017-Dec-13 21:58N 46°56' E 032°01'0 0.0
2017-Dec-13 21:28N 46°56' E 032°01'0 0.0
2017-Dec-13 20:58N 46°56' E 032°01'0 0.0
2017-Dec-13 20:28N 46°56' E 032°01'0 0.0
2017-Dec-13 19:58N 46°56' E 032°01'0 0.0
2017-Dec-13 19:28N 46°56' E 032°01'0 0.0
2017-Dec-13 18:58N 46°56' E 032°01'0 0.0
2017-Dec-13 18:28N 46°56' E 032°01'0 0.0
2017-Dec-13 17:58N 46°56' E 032°01'0 0.0
2017-Dec-13 17:28N 46°56' E 032°01'0 0.0
2017-Dec-13 16:58N 46°56' E 032°01'0 0.0
2017-Dec-13 16:28N 46°56' E 032°01'0 0.0
2017-Dec-13 15:58N 46°56' E 032°01'0 0.0
2017-Dec-13 15:28N 46°56' E 032°01'0 0.0
2017-Dec-13 14:58N 46°56' E 032°01'0 0.0
2017-Dec-13 14:28N 46°56' E 032°01'0 0.0
2017-Dec-13 13:58N 46°56' E 032°01'0 0.0
2017-Dec-13 13:28N 46°56' E 032°01'0 0.0
2017-Dec-13 12:58N 46°56' E 032°01'0 0.0
2017-Dec-13 12:28N 46°56' E 032°01'0 0.0
2017-Dec-13 11:58N 46°56' E 032°01'0 0.0
2017-Dec-13 11:28N 46°56' E 032°01'0 0.0
2017-Dec-13 10:58N 46°56' E 032°01'0 0.0
2017-Dec-13 10:28N 46°56' E 032°01'0 0.0
2017-Dec-13 09:58N 46°56' E 032°01'0 0.0
2017-Dec-13 09:28N 46°56' E 032°01'0 0.0
2017-Dec-13 08:58N 46°56' E 032°01'0 0.0
2017-Dec-13 08:28N 46°56' E 032°01'0 0.0
2017-Dec-13 07:58N 46°56' E 032°01'0 0.0
2017-Dec-13 07:28N 46°56' E 032°01'0 0.0
2017-Dec-13 06:58N 46°56' E 032°01'0 0.0
2017-Dec-13 06:28N 46°56' E 032°01'0 0.0
2017-Dec-13 05:58N 46°56' E 032°01'0 0.0
2017-Dec-13 05:28N 46°56' E 032°01'0 0.0
2017-Dec-13 04:58N 46°56' E 032°01'0 0.0
2017-Dec-13 04:28N 46°56' E 032°01'0 0.0
2017-Dec-13 03:58N 46°56' E 032°01'0 0.0
2017-Dec-13 03:28N 46°56' E 032°01'0 0.0
2017-Dec-13 02:58N 46°56' E 032°01'0 0.0
2017-Dec-13 02:28N 46°56' E 032°01'0 0.0
2017-Dec-13 01:58N 46°56' E 032°01'0 0.0
2017-Dec-13 01:28N 46°56' E 032°01'0 0.0
2017-Dec-13 00:58N 46°56' E 032°01'0 0.0
2017-Dec-13 00:28N 46°56' E 032°01'0 0.0
2017-Dec-12 23:58N 46°56' E 032°01'0 0.0
2017-Dec-12 23:28N 46°56' E 032°01'0 0.0
2017-Dec-12 22:58N 46°56' E 032°01'0 0.0
2017-Dec-12 22:28N 46°56' E 032°01'0 0.0
2017-Dec-12 21:58N 46°56' E 032°01'0 0.0
2017-Dec-12 21:28N 46°56' E 032°01'0 0.0
2017-Dec-12 20:58N 46°56' E 032°01'0 0.0
2017-Dec-12 20:28N 46°56' E 032°01'0 0.0
2017-Dec-12 19:58N 46°56' E 032°01'0 0.0
2017-Dec-12 19:28N 46°56' E 032°01'0 0.0
2017-Dec-12 18:58N 46°56' E 032°01'0 0.0
2017-Dec-12 18:28N 46°56' E 032°01'0 0.0
2017-Dec-12 17:58N 46°56' E 032°01'0 0.0
2017-Dec-12 17:28N 46°56' E 032°01'0 0.0
2017-Dec-12 16:58N 46°56' E 032°01'0 0.0
2017-Dec-12 16:28N 46°56' E 032°01'0 0.0
2017-Dec-12 15:58N 46°56' E 032°01'0 0.0
2017-Dec-12 15:28N 46°56' E 032°01'0 0.0
2017-Dec-12 14:58N 46°56' E 032°01'0 0.0
2017-Dec-12 14:28N 46°56' E 032°01'0 0.0
2017-Dec-12 13:58N 46°56' E 032°01'0 0.0
2017-Dec-12 13:28N 46°56' E 032°01'0 0.0
2017-Dec-12 12:58N 46°56' E 032°01'0 0.0
2017-Dec-12 12:28N 46°56' E 032°01'0 0.0
2017-Dec-12 11:58N 46°56' E 032°01'0 0.0
2017-Dec-12 11:28N 46°56' E 032°01'0 0.0
2017-Dec-12 10:58N 46°56' E 032°01'0 0.0
2017-Dec-12 10:28N 46°56' E 032°01'0 0.0
2017-Dec-12 09:58N 46°56' E 032°01'0 0.0
2017-Dec-12 09:28N 46°56' E 032°01'0 0.0
2017-Dec-12 08:58N 46°56' E 032°01'0 0.0
2017-Dec-12 08:28N 46°56' E 032°01'0 0.0
2017-Dec-12 07:58N 46°56' E 032°01'0 0.0
2017-Dec-12 07:28N 46°56' E 032°01'0 0.0
2017-Dec-12 06:58N 46°56' E 032°01'0 0.0
2017-Dec-12 06:28N 46°56' E 032°01'0 0.0
2017-Dec-12 05:58N 46°56' E 032°01'0 0.0
2017-Dec-12 05:25N 46°56' E 032°01'0 0.0
2017-Dec-12 04:58N 46°56' E 032°01'0 0.0
2017-Dec-12 04:28N 46°56' E 032°01'0 0.0
2017-Dec-12 03:58N 46°56' E 032°01'0 0.0
2017-Dec-12 03:28N 46°56' E 032°01'0 0.0
2017-Dec-12 02:58N 46°56' E 032°01'0 0.0
2017-Dec-12 02:28N 46°56' E 032°01'0 0.0
2017-Dec-12 01:58N 46°56' E 032°01'0 0.0
2017-Dec-12 01:25N 46°56' E 032°01'0 0.0
2017-Dec-12 00:58N 46°56' E 032°01'0 0.0
2017-Dec-12 00:28N 46°56' E 032°01'0 0.0
2017-Dec-11 23:58N 46°56' E 032°01'0 0.0
2017-Dec-11 23:28N 46°56' E 032°01'0 0.7
2017-Dec-11 23:00N 46°56' E 032°01'3 6.6
2017-Dec-11 22:30N 46°53' E 031°60'612.2
2017-Dec-11 22:00N 46°48' E 031°53'510.8
2017-Dec-11 21:30N 46°43' E 031°56'611.6
2017-Dec-11 21:01N 46°38' E 031°54'611.8
2017-Dec-11 20:30N 46°36' E 031°46'712.0
2017-Dec-11 19:57N 46°35' E 031°36'4 9.7
2017-Dec-11 19:30N 46°36' E 031°30'611.6
2017-Dec-11 19:00N 46°35' E 031°21'612.5
2017-Dec-11 18:30N 46°35' E 031°12'711.3
2017-Dec-11 17:55N 46°34' E 031°03'3 6.3
2017-Dec-11 17:29N 46°33' E 030°59'3 5.7
2017-Dec-11 17:00N 46°31' E 030°57'3 6.2
2017-Dec-11 16:30N 46°28' E 030°57'3 6.1
2017-Dec-11 16:00N 46°25' E 030°57'  
2017-Dec-09 11:09N 46°19' E 031°06'0 0.0
2017-Dec-09 04:28N 46°19' E 031°06'3 5.8
2017-Dec-09 04:00N 46°16' E 031°08'612.2
2017-Dec-09 03:29N 46°10' E 031°08'9413.2
2017-Dec-08 20:20N 44°48' E 030°03'413.0
2017-Dec-08 20:01N 44°44' E 030°00'713.1
2017-Dec-08 19:30N 44°38' E 029°56'713.2
2017-Dec-08 19:01N 44°32' E 029°51'713.5
2017-Dec-08 18:31N 44°27' E 029°46'713.8
2017-Dec-08 18:01N 44°24' E 029°37'713.6
2017-Dec-08 17:30N 44°20' E 029°29'713.6
2017-Dec-08 17:00N 44°17' E 029°20'713.5
2017-Dec-08 16:30N 44°14' E 029°12'713.1
2017-Dec-08 16:00N 44°11' E 029°04'612.9
2017-Dec-08 15:30N 44°08' E 028°56'612.8
2017-Dec-08 15:00N 44°06' E 028°48'4 7.6
2017-Dec-08 14:31N 44°06' E 028°43'3 6.5
2017-Dec-08 14:00N 44°09' E 028°40'1 2.9
2017-Dec-08 13:30N 44°10' E 028°39'0 0.2
2017-Dec-08 13:00N 44°10' E 028°39'0 0.0
2017-Dec-08 12:30N 44°10' E 028°39'0 0.0
2017-Dec-08 12:00N 44°10' E 028°39'0 0.0
2017-Dec-08 11:30N 44°10' E 028°39'0 0.0
2017-Dec-08 11:00N 44°10' E 028°39'0 0.0
2017-Dec-08 10:30N 44°10' E 028°39'  
Track history (hours):
 
Tides and Currents Weather Stations Pressure Air Temp Water Temp Dewpoint Dewpoint Depression Visibility Wind Speed Wind Dir Waves Ship Positions

Med Island

Last reported at 2017-Dec-17 17:30 UTC. Time now 2017-Dec-17 17:55 UTC.
Position N 37°40' E 025°51'.

Length 170 m; draft 9.7 m.

Type: Cargo ship. MMSI: 256155000.

Date/timePositionNaut miles runAvg speedWind from/ knotsBaromVisibWave heightAir tempDewpointWater temp
2017-Dec-17 17:30N 37°40' E 025°51'611.0
2017-Dec-17 17:00N 37°45' E 025°49'510.7
2017-Dec-17 16:29N 37°50' E 025°47'510.7
2017-Dec-17 16:00N 37°55' E 025°45'510.8
2017-Dec-17 15:30N 38°00' E 025°43'216 8.5
2017-Dec-16 14:09N 40°53' E 028°31'210.4
2017-Dec-16 13:59N 40°53' E 028°33'810.5
2017-Dec-16 13:13N 40°55' E 028°43'310.4
2017-Dec-16 12:57N 40°55' E 028°47'5 7.6
2017-Dec-16 12:17N 40°57' E 028°53'1 0.3
2017-Dec-16 09:26N 40°58' E 028°54'0 0.2
2017-Dec-16 09:00N 40°58' E 028°54'2 3.8
2017-Dec-16 08:25N 40°58' E 028°57'3 8.1
2017-Dec-16 07:59N 41°00' E 028°60'113 5.9
2017-Dec-15 12:55N 42°49' E 029°43'511.8
2017-Dec-15 12:30N 42°54' E 029°45'611.9
2017-Dec-15 12:00N 42°59' E 029°48'612.0
2017-Dec-15 11:30N 43°05' E 029°50'2011.8
2017-Dec-15 09:46N 43°25' E 029°58'312.2
2017-Dec-15 09:30N 43°28' E 029°59'612.1
2017-Dec-15 09:00N 43°34' E 030°01'712.1
2017-Dec-15 08:25N 43°41' E 030°04'512.0
2017-Dec-15 08:00N 43°45' E 030°06'4512.0
2017-Dec-15 04:13N 44°29' E 030°24'11111.4
2017-Dec-14 18:25N 46°18' E 030°55'511.3
2017-Dec-14 17:59N 46°23' E 030°55'611.5
2017-Dec-14 17:28N 46°29' E 030°55'4 9.6
2017-Dec-14 17:00N 46°33' E 030°58'24 9.5
2017-Dec-14 14:31N 46°35' E 031°32'0 8.2
2017-Dec-14 14:30N 46°35' E 031°32'4 7.9
2017-Dec-14 14:00N 46°36' E 031°38'4 7.8
2017-Dec-14 13:30N 46°36' E 031°44'5 9.3
2017-Dec-14 13:00N 46°36' E 031°50'4 9.2
2017-Dec-14 12:30N 46°39' E 031°56'5 9.4
2017-Dec-14 12:00N 46°44' E 031°56'4 9.0
2017-Dec-14 11:30N 46°48' E 031°53'5 9.7
2017-Dec-14 11:00N 46°52' E 031°58'4 8.5
2017-Dec-14 10:30N 46°55' E 032°01'2 3.1
2017-Dec-14 10:00N 46°57' E 032°01'1 1.0
2017-Dec-14 09:30N 46°56' E 032°01'0 0.0
2017-Dec-14 08:58N 46°56' E 032°01'0 0.0
2017-Dec-14 08:28N 46°56' E 032°01'0 0.0
2017-Dec-14 07:58N 46°56' E 032°01'0 0.0
2017-Dec-14 07:28N 46°56' E 032°01'0 0.0
2017-Dec-14 06:55N 46°56' E 032°01'0 0.0
2017-Dec-14 06:28N 46°56' E 032°01'0 0.0
2017-Dec-14 05:58N 46°56' E 032°01'0 0.0
2017-Dec-14 05:28N 46°56' E 032°01'0 0.0
2017-Dec-14 04:58N 46°56' E 032°01'0 0.0
2017-Dec-14 04:28N 46°56' E 032°01'0 0.0
2017-Dec-14 03:58N 46°56' E 032°01'0 0.0
2017-Dec-14 03:25N 46°56' E 032°01'0 0.0
2017-Dec-14 02:58N 46°56' E 032°01'0 0.0
2017-Dec-14 02:28N 46°56' E 032°01'0 0.0
2017-Dec-14 01:58N 46°56' E 032°01'0 0.0
2017-Dec-14 01:28N 46°56' E 032°01'0 0.0
2017-Dec-14 00:58N 46°56' E 032°01'0 0.0
2017-Dec-14 00:28N 46°56' E 032°01'0 0.0
2017-Dec-13 23:58N 46°56' E 032°01'0 0.0
2017-Dec-13 23:28N 46°56' E 032°01'0 0.0
2017-Dec-13 22:58N 46°56' E 032°01'0 0.0
2017-Dec-13 22:28N 46°56' E 032°01'0 0.0
2017-Dec-13 21:58N 46°56' E 032°01'0 0.0
2017-Dec-13 21:28N 46°56' E 032°01'0 0.0
2017-Dec-13 20:58N 46°56' E 032°01'0 0.0
2017-Dec-13 20:28N 46°56' E 032°01'0 0.0
2017-Dec-13 19:58N 46°56' E 032°01'0 0.0
2017-Dec-13 19:28N 46°56' E 032°01'0 0.0
2017-Dec-13 18:58N 46°56' E 032°01'0 0.0
2017-Dec-13 18:28N 46°56' E 032°01'0 0.0
2017-Dec-13 17:58N 46°56' E 032°01'0 0.0
2017-Dec-13 17:28N 46°56' E 032°01'0 0.0
2017-Dec-13 16:58N 46°56' E 032°01'0 0.0
2017-Dec-13 16:28N 46°56' E 032°01'0 0.0
2017-Dec-13 15:58N 46°56' E 032°01'0 0.0
2017-Dec-13 15:28N 46°56' E 032°01'0 0.0
2017-Dec-13 14:58N 46°56' E 032°01'0 0.0
2017-Dec-13 14:28N 46°56' E 032°01'0 0.0
2017-Dec-13 13:58N 46°56' E 032°01'0 0.0
2017-Dec-13 13:28N 46°56' E 032°01'0 0.0
2017-Dec-13 12:58N 46°56' E 032°01'0 0.0
2017-Dec-13 12:28N 46°56' E 032°01'0 0.0
2017-Dec-13 11:58N 46°56' E 032°01'0 0.0
2017-Dec-13 11:28N 46°56' E 032°01'0 0.0
2017-Dec-13 10:58N 46°56' E 032°01'0 0.0
2017-Dec-13 10:28N 46°56' E 032°01'0 0.0
2017-Dec-13 09:58N 46°56' E 032°01'0 0.0
2017-Dec-13 09:28N 46°56' E 032°01'0 0.0
2017-Dec-13 08:58N 46°56' E 032°01'0 0.0
2017-Dec-13 08:28N 46°56' E 032°01'0 0.0
2017-Dec-13 07:58N 46°56' E 032°01'0 0.0
2017-Dec-13 07:28N 46°56' E 032°01'0 0.0
2017-Dec-13 06:58N 46°56' E 032°01'0 0.0
2017-Dec-13 06:28N 46°56' E 032°01'0 0.0
2017-Dec-13 05:58N 46°56' E 032°01'0 0.0
2017-Dec-13 05:28N 46°56' E 032°01'0 0.0
2017-Dec-13 04:58N 46°56' E 032°01'0 0.0
2017-Dec-13 04:28N 46°56' E 032°01'0 0.0
2017-Dec-13 03:58N 46°56' E 032°01'0 0.0
2017-Dec-13 03:28N 46°56' E 032°01'0 0.0
2017-Dec-13 02:58N 46°56' E 032°01'0 0.0
2017-Dec-13 02:28N 46°56' E 032°01'0 0.0
2017-Dec-13 01:58N 46°56' E 032°01'0 0.0
2017-Dec-13 01:28N 46°56' E 032°01'0 0.0
2017-Dec-13 00:58N 46°56' E 032°01'0 0.0
2017-Dec-13 00:28N 46°56' E 032°01'0 0.0
2017-Dec-12 23:58N 46°56' E 032°01'0 0.0
2017-Dec-12 23:28N 46°56' E 032°01'0 0.0
2017-Dec-12 22:58N 46°56' E 032°01'0 0.0
2017-Dec-12 22:28N 46°56' E 032°01'0 0.0
2017-Dec-12 21:58N 46°56' E 032°01'0 0.0
2017-Dec-12 21:28N 46°56' E 032°01'0 0.0
2017-Dec-12 20:58N 46°56' E 032°01'0 0.0
2017-Dec-12 20:28N 46°56' E 032°01'0 0.0
2017-Dec-12 19:58N 46°56' E 032°01'0 0.0
2017-Dec-12 19:28N 46°56' E 032°01'0 0.0
2017-Dec-12 18:58N 46°56' E 032°01'0 0.0
2017-Dec-12 18:28N 46°56' E 032°01'0 0.0
2017-Dec-12 17:58N 46°56' E 032°01'0 0.0
2017-Dec-12 17:28N 46°56' E 032°01'0 0.0
2017-Dec-12 16:58N 46°56' E 032°01'0 0.0
2017-Dec-12 16:28N 46°56' E 032°01'0 0.0
2017-Dec-12 15:58N 46°56' E 032°01'0 0.0
2017-Dec-12 15:28N 46°56' E 032°01'0 0.0
2017-Dec-12 14:58N 46°56' E 032°01'0 0.0
2017-Dec-12 14:28N 46°56' E 032°01'0 0.0
2017-Dec-12 13:58N 46°56' E 032°01'0 0.0
2017-Dec-12 13:28N 46°56' E 032°01'0 0.0
2017-Dec-12 12:58N 46°56' E 032°01'0 0.0
2017-Dec-12 12:28N 46°56' E 032°01'0 0.0
2017-Dec-12 11:58N 46°56' E 032°01'0 0.0
2017-Dec-12 11:28N 46°56' E 032°01'0 0.0
2017-Dec-12 10:58N 46°56' E 032°01'0 0.0
2017-Dec-12 10:28N 46°56' E 032°01'0 0.0
2017-Dec-12 09:58N 46°56' E 032°01'0 0.0
2017-Dec-12 09:28N 46°56' E 032°01'0 0.0
2017-Dec-12 08:58N 46°56' E 032°01'0 0.0
2017-Dec-12 08:28N 46°56' E 032°01'0 0.0
2017-Dec-12 07:58N 46°56' E 032°01'0 0.0
2017-Dec-12 07:28N 46°56' E 032°01'0 0.0
2017-Dec-12 06:58N 46°56' E 032°01'0 0.0
2017-Dec-12 06:28N 46°56' E 032°01'0 0.0
2017-Dec-12 05:58N 46°56' E 032°01'0 0.0
2017-Dec-12 05:25N 46°56' E 032°01'0 0.0
2017-Dec-12 04:58N 46°56' E 032°01'0 0.0
2017-Dec-12 04:28N 46°56' E 032°01'0 0.0
2017-Dec-12 03:58N 46°56' E 032°01'0 0.0
2017-Dec-12 03:28N 46°56' E 032°01'0 0.0
2017-Dec-12 02:58N 46°56' E 032°01'0 0.0
2017-Dec-12 02:28N 46°56' E 032°01'0 0.0
2017-Dec-12 01:58N 46°56' E 032°01'0 0.0
2017-Dec-12 01:25N 46°56' E 032°01'0 0.0
2017-Dec-12 00:58N 46°56' E 032°01'0 0.0
2017-Dec-12 00:28N 46°56' E 032°01'0 0.0
2017-Dec-11 23:58N 46°56' E 032°01'0 0.0
2017-Dec-11 23:28N 46°56' E 032°01'0 0.7
2017-Dec-11 23:00N 46°56' E 032°01'3 6.6
2017-Dec-11 22:30N 46°53' E 031°60'612.2
2017-Dec-11 22:00N 46°48' E 031°53'510.8
2017-Dec-11 21:30N 46°43' E 031°56'611.6
2017-Dec-11 21:01N 46°38' E 031°54'611.8
2017-Dec-11 20:30N 46°36' E 031°46'712.0
2017-Dec-11 19:57N 46°35' E 031°36'4 9.7
2017-Dec-11 19:30N 46°36' E 031°30'611.6
2017-Dec-11 19:00N 46°35' E 031°21'612.5
2017-Dec-11 18:30N 46°35' E 031°12'711.3
2017-Dec-11 17:55N 46°34' E 031°03'3 6.3
2017-Dec-11 17:29N 46°33' E 030°59'3 5.7
2017-Dec-11 17:00N 46°31' E 030°57'3 6.2
2017-Dec-11 16:30N 46°28' E 030°57'3 6.1
2017-Dec-11 16:00N 46°25' E 030°57'  
2017-Dec-09 11:09N 46°19' E 031°06'0 0.0
2017-Dec-09 04:28N 46°19' E 031°06'3 5.8
2017-Dec-09 04:00N 46°16' E 031°08'612.2
2017-Dec-09 03:29N 46°10' E 031°08'9413.2
2017-Dec-08 20:20N 44°48' E 030°03'413.0
2017-Dec-08 20:01N 44°44' E 030°00'713.1
2017-Dec-08 19:30N 44°38' E 029°56'713.2
2017-Dec-08 19:01N 44°32' E 029°51'713.5
2017-Dec-08 18:31N 44°27' E 029°46'713.8
2017-Dec-08 18:01N 44°24' E 029°37'713.6
2017-Dec-08 17:30N 44°20' E 029°29'713.6
2017-Dec-08 17:00N 44°17' E 029°20'713.5
2017-Dec-08 16:30N 44°14' E 029°12'713.1
2017-Dec-08 16:00N 44°11' E 029°04'612.9
2017-Dec-08 15:30N 44°08' E 028°56'612.8
2017-Dec-08 15:00N 44°06' E 028°48'4 7.6
2017-Dec-08 14:31N 44°06' E 028°43'3 6.5
2017-Dec-08 14:00N 44°09' E 028°40'1 2.9
2017-Dec-08 13:30N 44°10' E 028°39'0 0.2
2017-Dec-08 13:00N 44°10' E 028°39'0 0.0
2017-Dec-08 12:30N 44°10' E 028°39'0 0.0
2017-Dec-08 12:00N 44°10' E 028°39'0 0.0
2017-Dec-08 11:30N 44°10' E 028°39'0 0.0
2017-Dec-08 11:00N 44°10' E 028°39'0 0.0
2017-Dec-08 10:30N 44°10' E 028°39'  

Dump ship's entire track history